Time;durP1;ratioP1;P1;durP2;ratioP2;P2;SDS_P1;SDS_P2;PMS_P1;PMS_P2;Temp;Humidity;BMP_temperature;BMP_pressure;BME280_temperature;BME280_humidity;BME280_pressure;Samples;Min_cycle;Max_cycle;Signal;HPM_P1;HPM_P2
2022/08/22 00:02:26;;;;;;;11.63;4.97;;;;;;;16.27;91.11;101560.28;5032771;28;20154;-73
2022/08/22 00:05:19;;;;;;;7.13;4.18;;;;;;;16.31;90.84;101570.63;5032858;28;20110;-73
2022/08/22 00:08:06;;;;;;;7.88;4.25;;;;;;;16.30;91.40;101571.53;5033190;28;20071;-73
2022/08/22 00:10:51;;;;;;;9.40;4.07;;;;;;;16.30;91.71;101571.53;5031771;28;20026;-73
2022/08/22 00:13:24;;;;;;;6.40;3.70;;;;;;;16.31;91.61;101577.66;5032489;28;20464;-73
2022/08/22 00:15:59;;;;;;;9.88;3.80;;;;;;;16.29;91.31;101572.47;5032287;28;20053;-73
2022/08/22 00:18:36;;;;;;;9.25;4.25;;;;;;;16.29;91.19;101568.97;5032637;28;20066;-73
2022/08/22 00:21:13;;;;;;;8.93;4.15;;;;;;;16.28;90.78;101567.25;5032920;28;20028;-72
2022/08/22 00:23:57;;;;;;;9.88;3.50;;;;;;;16.32;91.02;101568.88;5031634;28;20033;-73
2022/08/22 00:26:45;;;;;;;11.38;4.13;;;;;;;16.33;90.99;101573.22;5033032;28;20034;-73
2022/08/22 00:29:24;;;;;;;5.85;4.45;;;;;;;16.32;91.52;101563.59;5032748;28;20029;-73
2022/08/22 00:32:11;;;;;;;9.02;4.65;;;;;;;16.29;91.85;101566.34;5031911;28;20075;-73
2022/08/22 00:35:00;;;;;;;8.85;4.47;;;;;;;16.34;92.04;101569.66;5032522;28;20026;-73
2022/08/22 00:37:46;;;;;;;8.13;4.28;;;;;;;16.31;92.19;101569.75;5031634;28;20108;-72
2022/08/22 00:40:11;;;;;;;6.30;3.92;;;;;;;16.28;92.61;101567.25;5032859;28;20351;-73
2022/08/22 00:43:11;;;;;;;7.18;4.20;;;;;;;16.26;92.32;101566.44;5032274;28;20048;-72
2022/08/22 00:45:55;;;;;;;7.47;3.85;;;;;;;16.25;93.40;101570.88;5031273;28;20049;-72
2022/08/22 00:48:39;;;;;;;9.63;4.93;;;;;;;16.21;93.23;101563.97;5032356;28;20067;-73
2022/08/22 00:51:23;;;;;;;8.30;4.90;;;;;;;16.20;93.32;101574.56;5031991;28;20428;-73
2022/08/22 00:54:03;;;;;;;8.88;4.90;;;;;;;16.23;93.59;101577.09;5032749;28;20385;-73
2022/08/22 00:57:12;;;;;;;6.82;4.43;;;;;;;16.21;93.61;101571.00;5032210;28;20465;-73
2022/08/22 00:59:46;;;;;;;8.23;4.85;;;;;;;16.13;93.95;101564.25;5031634;28;20037;-73
2022/08/22 01:02:31;;;;;;;8.68;4.70;;;;;;;16.15;95.09;101577.34;5032563;28;20025;-73
2022/08/22 01:05:16;;;;;;;8.45;4.70;;;;;;;16.19;93.68;101572.84;5031548;28;20428;-73
2022/08/22 01:08:06;;;;;;;8.98;4.15;;;;;;;16.20;94.94;101574.56;5032552;28;20033;-73
2022/08/22 01:10:49;;;;;;;8.60;4.70;;;;;;;16.17;93.98;101566.78;5032180;28;20358;-73
2022/08/22 01:13:20;;;;;;;8.80;4.70;;;;;;;16.18;94.59;101566.72;5031698;28;20038;-73
2022/08/22 01:15:49;;;;;;;8.68;4.80;;;;;;;16.17;94.50;101564.16;5032305;28;20025;-73
2022/08/22 01:18:41;;;;;;;7.55;4.85;;;;;;;16.17;94.06;101562.38;5032433;28;20057;-72
2022/08/22 01:22:04;;;;;;;11.85;4.53;;;;;;;16.19;93.56;101573.72;5032440;28;20037;-73
2022/08/22 01:25:17;;;;;;;9.60;5.45;;;;;;;16.18;93.02;101561.44;4951938;29;20036;-73
2022/08/22 01:28:17;;;;;;;10.95;5.60;;;;;;;16.19;92.40;101563.19;4951420;29;20118;-73
2022/08/22 01:31:05;;;;;;;11.00;6.40;;;;;;;16.11;92.41;101552.06;5032123;28;20048;-73
2022/08/22 01:33:49;;;;;;;13.90;7.60;;;;;;;16.18;91.53;101557.97;5031092;28;20025;-73
2022/08/22 01:36:32;;;;;;;12.20;7.47;;;;;;;16.21;91.03;101565.75;5034469;28;20033;-73
2022/08/22 01:39:16;;;;;;;13.18;8.23;;;;;;;16.24;91.02;101563.00;5035936;28;20034;-73
2022/08/22 01:41:50;;;;;;;;;;;;;;;16.28;89.68;101567.25;5035576;28;20112;-73
2022/08/22 01:44:28;;;;;;;;;;;;;;;16.23;88.98;101556.03;5035746;28;19928;-73
2022/08/22 01:47:10;;;;;;;13.88;7.90;;;;;;;16.30;89.71;101560.16;5034541;28;19924;-73
2022/08/22 01:49:45;;;;;;;11.82;7.60;;;;;;;16.30;89.80;101555.75;5035393;28;20087;-73
2022/08/22 01:52:43;;;;;;;13.98;7.45;;;;;;;16.33;89.73;101562.69;5035394;28;20516;-73
2022/08/22 01:55:20;;;;;;;12.75;7.35;;;;;;;16.31;89.17;101559.25;5019226;28;20040;-73
2022/08/22 01:58:20;;;;;;;12.68;7.88;;;;;;;16.34;88.87;101559.97;5035583;28;20028;-73
2022/08/22 02:01:02;;;;;;;13.93;7.60;;;;;;;16.27;89.55;101547.13;5035550;28;20100;-73
2022/08/22 02:03:52;;;;;;;11.07;7.32;;;;;;;16.36;89.26;101557.31;5034925;28;20453;-73
2022/08/22 02:06:31;;;;;;;12.52;6.88;;;;;;;16.32;89.25;101546.03;5034179;28;20041;-73
2022/08/22 02:09:31;;;;;;;14.52;7.63;;;;;;;16.39;89.05;101554.56;5034352;28;20549;-72
2022/08/22 02:12:19;;;;;;;11.73;7.25;;;;;;;16.39;88.91;101551.94;5035089;28;20038;-72
2022/08/22 02:15:15;;;;;;;12.30;7.13;;;;;;;16.39;89.11;101558.06;5035245;28;20034;-73
2022/08/22 02:17:53;;;;;;;12.52;6.75;;;;;;;16.41;89.06;101555.34;5034794;28;20466;-73
2022/08/22 02:20:40;;;;;;;11.02;7.40;;;;;;;16.40;88.98;101548.38;5034558;28;20025;-73
2022/08/22 02:23:33;;;;;;;15.15;6.82;;;;;;;16.34;88.89;101549.47;5034051;28;20363;-73
2022/08/22 02:26:01;;;;;;;12.75;7.45;;;;;;;16.33;88.27;101555.66;5034882;28;20041;-73
2022/08/22 02:28:56;;;;;;;11.43;7.10;;;;;;;16.35;89.10;101555.59;5034461;28;20405;-73
2022/08/22 02:31:43;;;;;;;13.05;6.88;;;;;;;16.34;89.07;101557.34;5033922;28;20022;-73
2022/08/22 02:34:30;;;;;;;12.13;7.30;;;;;;;16.32;88.41;101553.94;5034710;28;20036;-72
2022/08/22 02:37:05;;;;;;;11.20;7.32;;;;;;;16.30;88.79;101547.84;5033687;28;20025;-73
2022/08/22 02:39:36;;;;;;;11.82;7.30;;;;;;;16.24;88.49;101541.97;5034466;28;20032;-72
2022/08/22 02:42:13;;;;;;;11.73;6.85;;;;;;;16.27;88.65;101544.47;5034633;28;20071;-73
2022/08/22 02:44:47;;;;;;;13.38;7.10;;;;;;;16.25;88.45;101554.19;5033299;28;20076;-73
2022/08/22 02:47:55;;;;;;;10.20;7.35;;;;;;;16.25;88.34;101548.94;5033177;28;20369;-73
2022/08/22 02:50:46;;;;;;;15.00;7.28;;;;;;;16.27;89.29;101547.97;5033507;28;20030;-73
2022/08/22 02:53:22;;;;;;;17.92;7.00;;;;;;;16.21;88.96;101547.34;5034369;28;20028;-73
2022/08/22 02:56:13;;;;;;;11.82;6.70;;;;;;;16.24;89.02;101547.22;5034201;28;20022;-72
2022/08/22 02:58:52;;;;;;;13.95;7.28;;;;;;;16.20;89.59;101545.63;5033196;28;20408;-73
2022/08/22 03:01:32;;;;;;;9.82;6.57;;;;;;;16.21;90.61;101545.56;5033969;28;20052;-73
2022/08/22 03:04:25;;;;;;;12.02;6.68;;;;;;;16.21;90.37;101544.69;5034092;28;20052;-72
2022/08/22 03:06:56;;;;;;;14.38;7.30;;;;;;;16.13;90.19;101545.84;5034190;28;20061;-72
2022/08/22 03:09:28;;;;;;;10.25;6.88;;;;;;;16.05;91.35;101552.28;5033612;28;20496;-73
2022/08/22 03:12:20;;;;;;;10.80;7.00;;;;;;;16.04;90.86;101548.78;5033081;28;20465;-72
2022/08/22 03:15:17;;;;;;;12.50;7.55;;;;;;;15.98;91.15;101556.03;5034093;28;20053;-73
2022/08/22 03:18:05;;;;;;;13.23;7.20;;;;;;;15.94;91.84;101550.03;5034006;28;20037;-72
2022/08/22 03:20:44;;;;;;;15.50;7.95;;;;;;;15.89;92.58;101544.03;5032792;28;20087;-73
2022/08/22 03:23:22;;;;;;;13.65;8.65;;;;;;;15.82;92.29;101529.41;5033979;28;20032;-73
2022/08/22 03:26:16;;;;;;;18.08;9.85;;;;;;;15.80;91.96;101526.84;5033018;28;20043;-72
2022/08/22 03:28:51;;;;;;;14.68;8.82;;;;;;;15.66;92.44;101527.31;5033700;28;20473;-72
2022/08/22 03:31:25;;;;;;;16.52;7.95;;;;;;;15.58;93.29;101528.44;5033207;28;20438;-73
2022/08/22 03:34:25;;;;;;;15.13;8.85;;;;;;;15.49;92.87;101537.47;5032916;28;20021;-73
2022/08/22 03:37:14;;;;;;;15.77;8.80;;;;;;;15.39;93.25;101536.06;5033496;28;20389;-72
2022/08/22 03:39:54;;;;;;;14.80;8.63;;;;;;;15.30;94.02;101525.84;5032625;28;20055;-72
2022/08/22 03:42:28;;;;;;;14.95;9.40;;;;;;;15.28;95.06;101523.28;5033337;28;20029;-73
2022/08/22 03:45:33;;;;;;;16.05;8.80;;;;;;;15.23;94.14;101519.94;5033298;28;20056;-73
2022/08/22 03:48:17;;;;;;;14.80;8.90;;;;;;;15.14;95.59;101528.97;5032655;28;20032;-73
2022/08/22 03:51:19;;;;;;;14.73;8.82;;;;;;;15.09;94.94;101520.38;5033317;28;20029;-72
2022/08/22 03:53:44;;;;;;;17.75;9.35;;;;;;;15.04;96.03;101513.53;5032420;28;20143;-73
2022/08/22 03:56:28;;;;;;;15.97;9.63;;;;;;;14.99;96.03;101518.94;5033052;28;20470;-72
2022/08/22 03:59:15;;;;;;;15.90;9.75;;;;;;;14.92;96.65;101523.53;5033006;28;20273;-72
2022/08/22 04:02:08;;;;;;;17.52;10.18;;;;;;;14.86;96.44;101520.22;5032101;28;20499;-72
2022/08/22 04:04:51;;;;;;;14.17;10.30;;;;;;;14.81;96.94;101511.63;5032966;28;20048;-72
2022/08/22 04:07:32;;;;;;;18.08;10.55;;;;;;;14.76;97.56;101519.66;5032819;28;20025;-73
2022/08/22 04:10:20;;;;;;;14.73;9.98;;;;;;;14.71;96.76;101517.19;5033341;28;20033;-72
2022/08/22 04:12:57;;;;;;;18.58;10.88;;;;;;;14.71;97.54;101516.28;4993812;28;20069;-72
2022/08/22 04:15:47;;;;;;;17.63;10.15;;;;;;;14.69;97.28;101518.97;5031855;28;20492;-73
2022/08/22 04:18:43;;;;;;;17.00;10.60;;;;;;;14.67;98.11;101533.03;5032816;28;20029;-72
2022/08/22 04:21:46;;;;;;;15.05;9.68;;;;;;;14.67;97.86;101528.66;5032799;28;20029;-72
2022/08/22 04:24:22;;;;;;;15.20;10.65;;;;;;;14.64;97.70;101518.25;5032874;28;20033;-72
2022/08/22 04:26:54;;;;;;;12.45;10.30;;;;;;;14.74;98.35;101538.06;5032747;28;20036;-72
2022/08/22 04:29:41;;;;;;;16.10;11.40;;;;;;;14.82;97.49;101540.47;5031581;28;20030;-73
2022/08/22 04:32:18;;;;;;;17.65;10.45;;;;;;;14.85;98.38;101540.38;5032986;28;20037;-72
2022/08/22 04:34:49;;;;;;;21.75;11.43;;;;;;;14.88;98.20;101536.81;5033016;28;20025;-72
2022/08/22 04:37:22;;;;;;;15.77;10.38;;;;;;;14.93;98.44;101537.50;5031957;28;20053;-72
2022/08/22 04:40:01;;;;;;;16.55;11.07;;;;;;;14.93;98.33;101527.00;5032745;28;20104;-73
2022/08/22 04:42:45;;;;;;;20.15;11.02;;;;;;;14.95;97.88;101535.72;5032351;28;20034;-72
2022/08/22 04:45:22;;;;;;;16.88;10.60;;;;;;;14.95;97.93;101535.72;5032442;28;20045;-72
2022/08/22 04:47:58;;;;;;;16.10;10.70;;;;;;;14.97;98.28;101533.88;5032628;28;20138;-72
2022/08/22 04:50:30;;;;;;;14.63;10.35;;;;;;;14.97;98.33;101532.09;5031479;28;20032;-72
2022/08/22 04:53:12;;;;;;;16.53;11.57;;;;;;;15.04;98.26;101540.69;5032830;28;20045;-73
2022/08/22 04:56:06;;;;;;;16.75;10.77;;;;;;;15.08;98.13;101544.06;5032426;28;20388;-72
2022/08/22 04:58:46;;;;;;;14.23;10.57;;;;;;;15.11;97.81;101547.47;5031334;28;20473;-72
2022/08/22 05:01:22;;;;;;;15.70;10.73;;;;;;;15.16;98.34;101545.53;5032934;28;20030;-73
2022/08/22 05:03:56;;;;;;;20.13;10.88;;;;;;;15.20;98.30;101541.91;5031790;28;20029;-72
2022/08/22 05:06:25;;;;;;;20.15;10.82;;;;;;;15.28;98.19;101548.69;5032298;28;20060;-72
2022/08/22 05:08:52;;;;;;;20.60;10.93;;;;;;;15.30;97.93;101546.84;5032494;28;20026;-72
2022/08/22 05:11:20;;;;;;;21.38;11.25;;;;;;;15.36;97.82;101551.91;5033851;28;20061;-73
2022/08/22 05:13:55;;;;;;;16.25;10.38;;;;;;;15.43;97.63;101553.44;5036311;28;20075;-72
2022/08/22 05:16:27;;;;;;;17.27;11.80;;;;;;;15.54;97.78;101553.09;5035909;28;20017;-73
2022/08/22 05:19:22;;;;;;;21.75;11.48;;;;;;;15.59;96.57;101554.66;5035419;28;20151;-72
2022/08/22 05:21:49;;;;;;;15.52;11.88;;;;;;;15.65;96.47;101546.56;5035999;28;20029;-73
2022/08/22 05:24:47;;;;;;;16.60;11.60;;;;;;;15.77;96.15;101549.75;5036181;28;20098;-73
2022/08/22 05:27:20;;;;;;;17.35;11.77;;;;;;;15.79;96.24;101550.53;5026978;28;20057;-73
2022/08/22 05:29:49;;;;;;;15.68;11.32;;;;;;;15.82;95.78;101550.44;5035953;28;20143;-72
2022/08/22 05:32:27;;;;;;;17.63;11.57;;;;;;;15.87;95.58;101559.03;5035274;28;20029;-72
2022/08/22 05:34:58;;;;;;;17.85;11.35;;;;;;;15.87;96.31;101561.66;5035966;28;20143;-73
2022/08/22 05:37:39;;;;;;;20.08;11.77;;;;;;;15.91;95.82;101558.88;5035598;28;20056;-73
2022/08/22 05:40:08;;;;;;;20.83;12.60;;;;;;;15.95;95.96;101557.00;5034972;28;20053;-73
2022/08/22 05:42:36;;;;;;;18.52;11.70;;;;;;;15.99;95.87;101557.75;5035365;28;20025;-73
2022/08/22 05:45:05;;;;;;;16.75;11.50;;;;;;;16.02;95.21;101552.38;5035394;28;20045;-73
2022/08/22 05:47:40;;;;;;;18.50;11.50;;;;;;;16.08;95.98;101557.41;5034645;28;20030;-73
2022/08/22 05:50:17;;;;;;;16.67;10.70;;;;;;;16.11;95.27;101550.28;5035560;28;20034;-72
2022/08/22 05:53:06;;;;;;;16.40;10.68;;;;;;;16.20;95.36;101566.66;5035380;28;20021;-72
2022/08/22 05:56:18;;;;;;;20.80;11.18;;;;;;;16.26;95.06;101561.19;5035423;28;20033;-73
2022/08/22 05:58:43;;;;;;;18.92;10.88;;;;;;;16.30;95.72;101557.53;4974508;28;20039;-73
2022/08/22 06:01:36;;;;;;;21.40;11.30;;;;;;;16.34;95.19;101556.50;4973611;28;20027;-73
2022/08/22 06:04:27;;;;;;;17.25;12.35;;;;;;;16.37;94.72;101556.38;5017084;28;20276;-72
2022/08/22 06:07:05;;;;;;;14.23;10.63;;;;;;;16.43;93.83;101557.94;5035200;28;20029;-72
2022/08/22 06:09:42;;;;;;;18.25;11.65;;;;;;;16.47;94.70;101557.75;5034761;28;20529;-73
2022/08/22 06:12:13;;;;;;;18.40;10.75;;;;;;;16.50;93.96;101560.28;5035386;28;20025;-72
2022/08/22 06:14:46;;;;;;;20.90;11.50;;;;;;;16.58;93.73;101552.97;5033908;28;20061;-72
2022/08/22 06:17:17;;;;;;;16.63;10.80;;;;;;;16.70;93.19;101559.53;5035159;28;20025;-73
2022/08/22 06:19:49;;;;;;;20.20;11.23;;;;;;;16.77;91.71;101555.78;5034937;28;20033;-72
2022/08/22 06:22:23;;;;;;;21.17;11.43;;;;;;;16.91;91.79;101559.69;5034113;28;20036;-73
2022/08/22 06:24:52;;;;;;;19.17;11.30;;;;;;;17.03;91.10;101559.22;5035133;28;20433;-73
2022/08/22 06:27:22;;;;;;;17.83;11.07;;;;;;;17.16;90.69;101564.84;5034408;28;20029;-73
2022/08/22 06:29:55;;;;;;;19.40;10.93;;;;;;;17.21;90.26;101558.50;5033957;28;20528;-73
2022/08/22 06:32:30;;;;;;;21.92;11.55;;;;;;;17.27;90.49;101554.75;5034459;28;20104;-73
2022/08/22 06:35:02;;;;;;;21.52;10.65;;;;;;;17.39;89.99;101562.16;5034845;28;20025;-73
2022/08/22 06:37:38;;;;;;;16.80;11.88;;;;;;;17.46;89.01;101562.75;5033832;28;20052;-72
2022/08/22 06:40:06;;;;;;;20.55;11.32;;;;;;;17.54;89.58;101563.31;5034713;28;20087;-73
2022/08/22 06:42:36;;;;;;;16.20;10.93;;;;;;;17.60;88.54;101559.59;5033530;28;20029;-73
2022/08/22 06:45:09;;;;;;;21.10;12.05;;;;;;;17.70;88.20;101568.81;5034279;28;20038;-73
2022/08/22 06:47:39;;;;;;;18.40;11.80;;;;;;;17.79;86.84;101568.47;5034433;28;20235;-73
2022/08/22 06:50:11;;;;;;;20.13;11.90;;;;;;;17.83;87.27;101559.50;5033679;28;20071;-72
2022/08/22 06:52:55;;;;;;;19.88;11.52;;;;;;;17.96;86.96;101563.34;5034084;28;20025;-72
2022/08/22 06:55:22;;;;;;;;;;;;;;;18.11;87.01;101576.78;5034382;28;20025;-73
2022/08/22 06:58:02;;;;;;;18.80;11.95;;;;;;;18.14;86.46;101576.66;5033701;28;19913;-73
2022/08/22 07:00:31;;;;;;;19.23;12.15;;;;;;;18.18;86.16;101572.94;5033987;28;20108;-73
2022/08/22 07:03:08;;;;;;;20.88;12.48;;;;;;;18.21;85.67;101586.00;5034087;28;20034;-72
2022/08/22 07:05:38;;;;;;;20.52;12.15;;;;;;;18.18;85.78;101576.47;5032947;28;20028;-72
2022/08/22 07:08:12;;;;;;;22.90;11.95;;;;;;;18.24;84.94;101584.09;5034233;28;20029;-73
2022/08/22 07:10:44;;;;;;;22.92;11.77;;;;;;;18.25;85.00;101577.91;5033059;28;20051;-73
2022/08/22 07:13:14;;;;;;;18.33;13.07;;;;;;;18.27;84.11;101580.47;5034028;28;20469;-72
2022/08/22 07:15:41;;;;;;;18.58;12.38;;;;;;;18.27;84.75;101584.88;5033773;28;20025;-72
2022/08/22 07:18:18;;;;;;;24.50;12.75;;;;;;;18.33;84.50;101589.91;5032984;28;20034;-73
2022/08/22 07:20:49;;;;;;;22.40;12.07;;;;;;;18.42;84.48;101589.50;5033986;28;20377;-73
2022/08/22 07:23:34;;;;;;;21.90;13.23;;;;;;;18.60;85.15;101585.16;5033988;28;20645;-73
2022/08/22 07:26:15;;;;;;;21.73;12.25;;;;;;;18.71;83.84;101582.91;5032833;28;20025;-73
2022/08/22 07:28:49;;;;;;;22.15;12.25;;;;;;;18.76;82.77;101585.38;5033679;28;20037;-73
2022/08/22 07:31:21;;;;;;;24.60;11.80;;;;;;;18.85;82.36;101584.94;5033862;28;20037;-73
2022/08/22 07:33:51;;;;;;;17.25;12.15;;;;;;;19.05;82.38;101578.72;5032434;28;20026;-73
2022/08/22 07:36:46;;;;;;;18.38;12.65;;;;;;;19.19;81.60;101573.63;5033214;28;20100;-73
2022/08/22 07:39:18;;;;;;;24.55;13.07;;;;;;;19.38;80.29;101570.97;5032629;28;20036;-73
2022/08/22 07:42:00;;;;;;;15.82;11.50;;;;;;;19.63;80.30;101570.63;5033619;28;20029;-73
2022/08/22 07:44:34;;;;;;;22.80;12.95;;;;;;;19.91;78.53;101559.50;5032980;28;20052;-73
2022/08/22 07:47:09;;;;;;;20.67;12.13;;;;;;;19.98;76.92;101562.69;5032483;28;20112;-73
2022/08/22 07:49:44;;;;;;;19.70;11.35;;;;;;;19.98;76.09;101554.75;5032884;28;20125;-73
2022/08/22 07:52:11;;;;;;;21.95;11.45;;;;;;;19.99;77.00;101560.00;5033525;28;20104;-73
2022/08/22 07:54:44;;;;;;;17.48;10.95;;;;;;;20.09;76.90;101561.22;5032215;28;20030;-73
2022/08/22 07:57:14;;;;;;;18.67;11.40;;;;;;;20.18;75.31;101572.28;5033235;28;20528;-73
2022/08/22 07:59:50;;;;;;;21.08;10.30;;;;;;;20.29;76.99;101565.47;5031991;28;20030;-79
2022/08/22 08:02:18;;;;;;;15.50;9.90;;;;;;;20.40;74.62;101562.25;5033096;28;20021;-80
2022/08/22 08:04:46;;;;;;;14.75;9.52;;;;;;;20.49;75.77;101560.91;5033527;28;20060;-73
2022/08/22 08:07:14;;;;;;;14.45;9.63;;;;;;;20.61;73.94;101559.44;5032120;28;20125;-73
2022/08/22 08:09:49;;;;;;;18.90;10.00;;;;;;;20.62;74.58;101554.03;5032682;28;20033;-73
2022/08/22 08:12:17;;;;;;;18.58;9.63;;;;;;;20.56;74.65;101549.06;5032912;28;20026;-73
2022/08/22 08:14:48;;;;;;;16.98;9.93;;;;;;;20.55;74.57;101557.97;5032134;28;20036;-73
2022/08/22 08:17:24;;;;;;;17.95;9.45;;;;;;;20.62;74.37;101554.03;5033193;28;20496;-73
2022/08/22 08:19:51;;;;;;;15.02;8.88;;;;;;;20.59;74.02;101548.91;5033099;28;20072;-73
2022/08/22 08:22:22;;;;;;;17.55;9.95;;;;;;;20.69;73.72;101544.81;5031810;28;20083;-73
2022/08/22 08:24:49;;;;;;;19.55;8.52;;;;;;;20.88;72.60;101539.38;5032876;28;20024;-73
2022/08/22 08:30:34;;;;;;;13.77;8.38;;;;;;;21.29;72.31;101536.19;5032383;28;20072;-73
2022/08/22 08:33:01;;;;;;;14.38;8.43;;;;;;;21.46;69.38;101537.88;5032928;28;20025;-73
2022/08/22 08:35:31;;;;;;;14.75;8.32;;;;;;;21.63;68.57;101543.06;5031504;28;20036;-73
2022/08/22 08:38:06;;;;;;;12.35;7.28;;;;;;;21.87;69.09;101550.50;5032928;28;20033;-73
2022/08/22 08:40:31;;;;;;;12.73;7.55;;;;;;;22.08;68.08;101549.22;5032554;28;20028;-73
2022/08/22 08:43:28;;;;;;;16.80;7.00;;;;;;;22.26;68.74;101546.41;5031931;28;20026;-73
2022/08/22 08:46:15;;;;;;;13.75;6.82;;;;;;;22.39;66.57;101545.56;5036044;28;20157;-73
2022/08/22 08:49:08;;;;;;;14.43;7.25;;;;;;;22.40;65.75;101534.00;5036834;28;20060;-73
2022/08/22 08:52:04;;;;;;;15.80;8.57;;;;;;;22.34;66.73;101536.19;5036473;28;20092;-73
2022/08/22 08:54:54;;;;;;;13.80;7.45;;;;;;;22.35;68.95;101535.22;5036486;28;20072;-73
2022/08/22 08:57:39;;;;;;;12.68;7.60;;;;;;;22.40;67.04;101528.69;5035573;28;20034;-73
2022/08/22 09:00:07;;;;;;;13.38;7.03;;;;;;;22.30;63.01;101535.53;5036440;28;20037;-73
2022/08/22 09:02:36;;;;;;;14.52;7.25;;;;;;;22.24;64.00;101532.41;5036361;28;20096;-73
2022/08/22 09:05:11;;;;;;;13.10;7.50;;;;;;;22.23;64.58;101528.88;5035537;28;20480;-73
2022/08/22 09:07:55;;;;;;;13.00;7.15;;;;;;;22.19;65.68;101527.34;5036213;28;20037;-73
2022/08/22 09:10:51;;;;;;;11.80;6.68;;;;;;;22.28;65.51;101531.25;5035281;28;20037;-73
2022/08/22 09:13:40;;;;;;;14.77;7.72;;;;;;;22.32;65.38;101530.09;5036102;28;20037;-73
2022/08/22 09:16:24;;;;;;;8.48;6.38;;;;;;;22.49;64.19;101527.25;5036245;28;20433;-73
2022/08/22 09:18:59;;;;;;;13.75;6.80;;;;;;;22.55;64.33;101524.19;5035406;28;20053;-73
2022/08/22 09:21:46;;;;;;;9.75;7.00;;;;;;;22.62;63.18;101525.53;5036067;28;20029;-73
2022/08/22 09:24:32;;;;;;;15.88;7.20;;;;;;;22.71;63.81;101510.81;5035237;28;20481;-73
2022/08/22 09:27:05;;;;;;;13.35;6.32;;;;;;;22.92;61.52;101519.19;5035948;28;20080;-73
2022/08/22 09:29:34;;;;;;;12.27;6.82;;;;;;;23.04;61.48;101514.94;5035638;28;20091;-73
2022/08/22 09:32:19;;;;;;;11.95;6.35;;;;;;;23.19;61.90;101510.44;5035502;28;20030;-73
2022/08/22 09:35:12;;;;;;;16.05;5.88;;;;;;;23.33;61.42;101523.66;5036093;28;20108;-73
2022/08/22 09:37:59;;;;;;;15.25;6.28;;;;;;;23.39;61.40;101525.91;5035542;28;20061;-73
2022/08/22 09:40:36;;;;;;;10.88;6.25;;;;;;;23.41;59.51;101523.97;5035033;28;20025;-73
2022/08/22 09:43:08;;;;;;;13.63;6.45;;;;;;;23.30;57.89;101513.22;5035791;28;20040;-73
2022/08/22 09:45:36;;;;;;;11.02;6.15;;;;;;;23.31;57.63;101528.22;5034373;28;20045;-73
2022/08/22 09:48:35;;;;;;;10.20;5.18;;;;;;;23.39;60.88;101522.41;5035546;28;20068;-73
2022/08/22 09:51:13;;;;;;;9.88;5.20;;;;;;;23.40;58.73;101513.44;5035505;28;20420;-73
2022/08/22 09:53:48;;;;;;;11.02;5.40;;;;;;;23.49;57.74;101519.00;5034741;28;20029;-73
2022/08/22 09:56:40;;;;;;;11.52;5.57;;;;;;;23.57;58.82;101515.81;5034970;28;20030;-74
2022/08/22 09:59:30;;;;;;;12.07;5.40;;;;;;;23.62;58.33;101519.03;5035564;28;20048;-73
2022/08/22 10:02:14;;;;;;;12.35;5.43;;;;;;;23.71;58.04;101509.63;5035325;28;20050;-73
2022/08/22 10:04:50;;;;;;;12.57;4.90;;;;;;;23.86;56.85;101513.88;5035086;28;20018;-73
2022/08/22 10:07:46;;;;;;;8.93;4.95;;;;;;;23.78;56.37;101511.75;5034337;28;20038;-73
2022/08/22 10:10:30;;;;;;;9.77;4.80;;;;;;;23.85;58.73;101504.19;5035198;28;20501;-73
2022/08/22 10:13:15;;;;;;;9.25;4.63;;;;;;;23.82;55.81;101509.72;5035117;28;20038;-73
2022/08/22 10:15:55;;;;;;;8.73;4.75;;;;;;;23.77;56.36;101506.50;5035297;28;20028;-73
2022/08/22 10:18:40;;;;;;;10.90;4.60;;;;;;;23.62;54.85;101500.41;5034824;28;20108;-73
2022/08/22 10:21:18;;;;;;;8.30;4.93;;;;;;;23.64;55.70;101498.47;5034525;28;20044;-73
2022/08/22 10:24:00;;;;;;;11.05;5.15;;;;;;;23.70;55.77;101490.09;5035015;28;20025;-73
2022/08/22 10:26:47;;;;;;;9.65;4.38;;;;;;;24.02;54.58;101500.34;5034774;28;20038;-73
2022/08/22 10:29:50;;;;;;;9.40;4.32;;;;;;;24.24;55.15;101499.72;5034232;28;20033;-74
2022/08/22 10:32:35;;;;;;;9.27;4.67;;;;;;;24.35;56.17;101490.94;5034736;28;20030;-73
2022/08/22 10:35:12;;;;;;;11.75;5.05;;;;;;;24.46;52.95;101483.94;5034108;28;20032;-74
2022/08/22 10:37:53;;;;;;;9.45;4.72;;;;;;;24.39;52.91;101477.28;5034427;28;20032;-73
2022/08/22 10:40:24;;;;;;;10.77;4.75;;;;;;;24.58;52.86;101489.31;5034343;28;20033;-73
2022/08/22 10:42:56;;;;;;;9.95;4.95;;;;;;;24.67;52.69;101480.66;5033972;28;20088;-73
2022/08/22 10:45:32;;;;;;;9.15;4.90;;;;;;;24.81;53.67;101480.50;5034087;28;20104;-73
2022/08/22 10:47:58;;;;;;;12.07;5.32;;;;;;;25.02;52.90;101477.22;5034539;28;20115;-74
2022/08/22 10:50:30;;;;;;;9.65;4.72;;;;;;;25.11;52.60;101463.19;5033392;28;20053;-74
2022/08/22 10:53:29;;;;;;;10.57;5.35;;;;;;;25.15;52.44;101475.38;5034617;28;20378;-74
2022/08/22 10:56:02;;;;;;;9.82;5.32;;;;;;;25.08;49.90;101463.41;5031595;28;20041;-74
2022/08/22 10:58:33;;;;;;;10.32;5.40;;;;;;;25.25;51.18;101470.22;5033613;28;20037;-73
2022/08/22 11:01:02;;;;;;;7.75;4.00;;;;;;;25.55;50.58;101473.19;5034021;28;20457;-73
2022/08/22 11:03:41;;;;;;;11.23;4.32;;;;;;;25.68;51.47;101462.44;5033233;28;20026;-72
2022/08/22 11:06:32;;;;;;;9.00;5.15;;;;;;;25.92;50.51;101471.22;5034193;28;20032;-73
2022/08/22 11:09:06;;;;;;;9.88;4.38;;;;;;;25.90;49.42;101470.50;5031251;28;20179;-76
2022/08/22 11:11:55;;;;;;;12.18;5.00;;;;;;;26.17;47.94;101468.44;5029609;28;20026;-77
2022/08/22 11:14:45;;;;;;;7.90;4.00;;;;;;;26.35;46.89;101467.78;5032873;28;20038;-77
2022/08/22 11:17:25;;;;;;;9.52;4.10;;;;;;;26.44;45.94;101465.38;5013332;28;20482;-76
2022/08/22 11:20:21;;;;;;;8.95;3.97;;;;;;;26.75;46.29;101458.41;5021371;28;20017;-76
2022/08/22 11:23:28;;;;;;;7.97;3.90;;;;;;;27.11;46.33;101459.88;5027101;28;20030;-76
2022/08/22 11:26:26;;;;;;;10.30;4.00;;;;;;;27.24;45.81;101459.69;5007397;28;20370;-76
2022/08/22 11:29:29;;;;;;;6.93;3.58;;;;;;;27.22;44.99;101457.16;5020569;28;20034;-76
2022/08/22 11:32:01;;;;;;;10.27;4.15;;;;;;;27.04;43.11;101459.53;5041856;28;20033;-77
2022/08/22 11:34:54;;;;;;;12.07;4.10;;;;;;;26.85;44.17;101454.84;5053105;28;20037;-77
2022/08/22 11:37:39;;;;;;;;;;;;;;;26.97;45.52;101452.97;5053764;28;20028;-77
2022/08/22 11:40:20;;;;;;;7.88;3.38;;;;;;;26.80;45.92;101454.38;5033921;28;19928;-77
2022/08/22 11:42:54;;;;;;;10.90;3.92;;;;;;;26.83;43.26;101451.44;5030963;28;20040;-77
2022/08/22 11:45:25;;;;;;;7.10;3.42;;;;;;;26.85;43.57;101449.50;5032094;28;20485;-77
2022/08/22 11:48:11;;;;;;;8.95;3.80;;;;;;;27.06;43.91;101452.22;5033532;28;20021;-77
2022/08/22 11:50:44;;;;;;;8.02;3.55;;;;;;;27.10;43.30;101447.44;5029107;28;20021;-77
2022/08/22 11:53:26;;;;;;;7.88;3.15;;;;;;;27.19;42.33;101437.84;5031815;28;20496;-77
2022/08/22 11:56:19;;;;;;;10.70;4.03;;;;;;;27.03;40.63;101440.91;5033472;28;20049;-77
2022/08/22 11:58:52;;;;;;;8.02;3.03;;;;;;;26.89;42.82;101447.44;5020687;28;20990;-76
2022/08/22 12:01:25;;;;;;;7.82;3.58;;;;;;;26.65;40.06;101439.59;5033035;28;20045;-76
2022/08/22 12:03:50;;;;;;;8.73;2.95;;;;;;;26.68;41.26;101442.00;5032665;28;20028;-76
2022/08/22 12:06:48;;;;;;;8.93;3.83;;;;;;;26.68;44.48;101446.50;5029684;28;20033;-77
2022/08/22 12:09:24;;;;;;;9.23;3.13;;;;;;;26.50;44.06;101443.53;5033171;28;20029;-77
2022/08/22 12:12:00;;;;;;;8.82;3.40;;;;;;;26.32;45.63;101451.16;5030081;28;20057;-74
2022/08/22 12:14:44;;;;;;;12.65;3.80;;;;;;;26.20;44.64;101438.81;5032150;28;20025;-73
2022/08/22 12:17:43;;;;;;;7.75;3.30;;;;;;;26.20;43.59;101438.81;5033028;28;20021;-73
2022/08/22 12:20:27;;;;;;;8.80;3.92;;;;;;;26.03;45.12;101442.78;5031820;28;20025;-73
2022/08/22 12:23:15;;;;;;;7.30;3.58;;;;;;;26.04;45.44;101444.53;5032880;28;20025;-74